sensor_id;sensor_type;location;lat;lon;timestamp;P1;durP1;ratioP1;P2;durP2;ratioP2
19016;SDS011;9641;51.494;6.670;2022-12-13T00:01:55;28.57;;;12.23;;
19016;SDS011;9641;51.494;6.670;2022-12-13T00:04:23;31.67;;;13.83;;
19016;SDS011;9641;51.494;6.670;2022-12-13T00:06:51;28.47;;;13.73;;
19016;SDS011;9641;51.494;6.670;2022-12-13T00:09:20;28.40;;;13.27;;
19016;SDS011;9641;51.494;6.670;2022-12-13T00:11:48;31.10;;;14.50;;
19016;SDS011;9641;51.494;6.670;2022-12-13T00:14:19;38.20;;;14.57;;
19016;SDS011;9641;51.494;6.670;2022-12-13T00:16:46;33.40;;;14.10;;
19016;SDS011;9641;51.494;6.670;2022-12-13T00:19:14;30.07;;;14.00;;
19016;SDS011;9641;51.494;6.670;2022-12-13T00:21:43;25.97;;;12.03;;
19016;SDS011;9641;51.494;6.670;2022-12-13T00:24:10;27.83;;;13.13;;
19016;SDS011;9641;51.494;6.670;2022-12-13T00:26:38;35.27;;;13.87;;
19016;SDS011;9641;51.494;6.670;2022-12-13T00:29:07;27.37;;;13.67;;
19016;SDS011;9641;51.494;6.670;2022-12-13T00:31:35;38.23;;;14.93;;
19016;SDS011;9641;51.494;6.670;2022-12-13T00:34:04;32.67;;;14.37;;
19016;SDS011;9641;51.494;6.670;2022-12-13T00:36:32;31.57;;;14.00;;
19016;SDS011;9641;51.494;6.670;2022-12-13T00:39:00;29.37;;;13.03;;
19016;SDS011;9641;51.494;6.670;2022-12-13T00:41:29;24.60;;;12.67;;
19016;SDS011;9641;51.494;6.670;2022-12-13T00:43:59;28.43;;;13.40;;
19016;SDS011;9641;51.494;6.670;2022-12-13T00:46:27;31.43;;;13.63;;
19016;SDS011;9641;51.494;6.670;2022-12-13T00:48:59;26.60;;;11.80;;
19016;SDS011;9641;51.494;6.670;2022-12-13T00:51:29;31.70;;;13.80;;
19016;SDS011;9641;51.494;6.670;2022-12-13T00:53:57;24.33;;;11.37;;
19016;SDS011;9641;51.494;6.670;2022-12-13T00:56:39;31.90;;;12.53;;
19016;SDS011;9641;51.494;6.670;2022-12-13T00:59:08;32.97;;;13.90;;
19016;SDS011;9641;51.494;6.670;2022-12-13T01:01:38;28.83;;;12.43;;
19016;SDS011;9641;51.494;6.670;2022-12-13T01:04:08;29.53;;;12.53;;
19016;SDS011;9641;51.494;6.670;2022-12-13T01:06:37;30.40;;;13.97;;
19016;SDS011;9641;51.494;6.670;2022-12-13T01:09:06;34.20;;;12.57;;
19016;SDS011;9641;51.494;6.670;2022-12-13T01:11:39;31.07;;;13.00;;
19016;SDS011;9641;51.494;6.670;2022-12-13T01:14:06;30.20;;;13.90;;
19016;SDS011;9641;51.494;6.670;2022-12-13T01:16:33;28.83;;;12.90;;
19016;SDS011;9641;51.494;6.670;2022-12-13T01:19:00;29.03;;;12.77;;
19016;SDS011;9641;51.494;6.670;2022-12-13T01:21:29;27.50;;;11.73;;
19016;SDS011;9641;51.494;6.670;2022-12-13T01:24:01;28.17;;;12.50;;
19016;SDS011;9641;51.494;6.670;2022-12-13T01:26:29;28.67;;;13.20;;
19016;SDS011;9641;51.494;6.670;2022-12-13T01:28:59;30.23;;;12.57;;
19016;SDS011;9641;51.494;6.670;2022-12-13T01:31:29;31.63;;;12.70;;
19016;SDS011;9641;51.494;6.670;2022-12-13T01:33:56;31.63;;;13.33;;
19016;SDS011;9641;51.494;6.670;2022-12-13T01:36:23;33.33;;;13.03;;
19016;SDS011;9641;51.494;6.670;2022-12-13T01:38:52;28.90;;;12.80;;
19016;SDS011;9641;51.494;6.670;2022-12-13T01:41:20;28.97;;;11.93;;
19016;SDS011;9641;51.494;6.670;2022-12-13T01:43:52;30.80;;;12.23;;
19016;SDS011;9641;51.494;6.670;2022-12-13T01:46:22;38.97;;;14.20;;
19016;SDS011;9641;51.494;6.670;2022-12-13T01:48:51;28.83;;;12.80;;
19016;SDS011;9641;51.494;6.670;2022-12-13T01:51:23;25.47;;;11.90;;
19016;SDS011;9641;51.494;6.670;2022-12-13T01:53:55;26.33;;;12.37;;
19016;SDS011;9641;51.494;6.670;2022-12-13T01:56:29;26.33;;;12.10;;
19016;SDS011;9641;51.494;6.670;2022-12-13T01:59:02;29.00;;;12.50;;
19016;SDS011;9641;51.494;6.670;2022-12-13T02:01:32;35.10;;;12.87;;
19016;SDS011;9641;51.494;6.670;2022-12-13T02:04:01;31.30;;;13.57;;
19016;SDS011;9641;51.494;6.670;2022-12-13T02:06:30;29.17;;;12.47;;
19016;SDS011;9641;51.494;6.670;2022-12-13T02:09:03;39.63;;;14.73;;
19016;SDS011;9641;51.494;6.670;2022-12-13T02:11:32;31.97;;;12.30;;
19016;SDS011;9641;51.494;6.670;2022-12-13T02:14:00;30.97;;;13.90;;
19016;SDS011;9641;51.494;6.670;2022-12-13T02:16:37;33.03;;;13.47;;
19016;SDS011;9641;51.494;6.670;2022-12-13T02:19:33;28.60;;;12.10;;
19016;SDS011;9641;51.494;6.670;2022-12-13T02:22:33;29.10;;;11.13;;
19016;SDS011;9641;51.494;6.670;2022-12-13T02:28:13;28.53;;;12.53;;
19016;SDS011;9641;51.494;6.670;2022-12-13T02:31:02;30.87;;;13.90;;
19016;SDS011;9641;51.494;6.670;2022-12-13T02:33:36;25.67;;;12.10;;
19016;SDS011;9641;51.494;6.670;2022-12-13T02:36:14;35.33;;;13.00;;
19016;SDS011;9641;51.494;6.670;2022-12-13T02:38:48;37.27;;;13.70;;
19016;SDS011;9641;51.494;6.670;2022-12-13T02:41:23;28.57;;;12.90;;
19016;SDS011;9641;51.494;6.670;2022-12-13T02:43:59;32.17;;;12.70;;
19016;SDS011;9641;51.494;6.670;2022-12-13T02:46:37;28.63;;;12.57;;
19016;SDS011;9641;51.494;6.670;2022-12-13T02:49:09;30.33;;;12.97;;
19016;SDS011;9641;51.494;6.670;2022-12-13T02:51:39;30.20;;;12.90;;
19016;SDS011;9641;51.494;6.670;2022-12-13T02:54:06;25.47;;;11.77;;
19016;SDS011;9641;51.494;6.670;2022-12-13T02:56:33;31.83;;;12.80;;
19016;SDS011;9641;51.494;6.670;2022-12-13T02:59:01;26.83;;;12.40;;
19016;SDS011;9641;51.494;6.670;2022-12-13T03:01:43;25.67;;;11.80;;
19016;SDS011;9641;51.494;6.670;2022-12-13T03:04:22;37.07;;;13.53;;
19016;SDS011;9641;51.494;6.670;2022-12-13T03:06:57;31.30;;;12.67;;
19016;SDS011;9641;51.494;6.670;2022-12-13T03:09:36;24.83;;;12.60;;
19016;SDS011;9641;51.494;6.670;2022-12-13T03:12:16;26.73;;;11.93;;
19016;SDS011;9641;51.494;6.670;2022-12-13T03:15:10;28.43;;;13.37;;
19016;SDS011;9641;51.494;6.670;2022-12-13T03:17:44;28.03;;;11.93;;
19016;SDS011;9641;51.494;6.670;2022-12-13T03:20:21;29.77;;;12.53;;
19016;SDS011;9641;51.494;6.670;2022-12-13T03:22:53;26.70;;;12.60;;
19016;SDS011;9641;51.494;6.670;2022-12-13T03:25:22;29.03;;;11.57;;
19016;SDS011;9641;51.494;6.670;2022-12-13T03:27:52;32.97;;;12.77;;
19016;SDS011;9641;51.494;6.670;2022-12-13T03:30:21;24.97;;;12.57;;
19016;SDS011;9641;51.494;6.670;2022-12-13T03:32:50;28.83;;;12.50;;
19016;SDS011;9641;51.494;6.670;2022-12-13T03:35:17;25.73;;;11.33;;
19016;SDS011;9641;51.494;6.670;2022-12-13T03:37:44;28.10;;;12.00;;
19016;SDS011;9641;51.494;6.670;2022-12-13T03:40:13;27.17;;;12.67;;
19016;SDS011;9641;51.494;6.670;2022-12-13T03:42:40;27.23;;;11.77;;
19016;SDS011;9641;51.494;6.670;2022-12-13T03:45:09;34.87;;;12.60;;
19016;SDS011;9641;51.494;6.670;2022-12-13T03:47:36;32.23;;;13.20;;
19016;SDS011;9641;51.494;6.670;2022-12-13T03:50:05;34.23;;;13.87;;
19016;SDS011;9641;51.494;6.670;2022-12-13T03:52:33;30.53;;;12.73;;
19016;SDS011;9641;51.494;6.670;2022-12-13T03:55:00;31.03;;;14.07;;
19016;SDS011;9641;51.494;6.670;2022-12-13T03:57:29;36.43;;;13.63;;
19016;SDS011;9641;51.494;6.670;2022-12-13T03:59:59;29.80;;;13.33;;
19016;SDS011;9641;51.494;6.670;2022-12-13T04:02:37;30.93;;;13.40;;
19016;SDS011;9641;51.494;6.670;2022-12-13T04:05:06;29.13;;;12.30;;
19016;SDS011;9641;51.494;6.670;2022-12-13T04:07:34;32.87;;;13.43;;
19016;SDS011;9641;51.494;6.670;2022-12-13T04:10:01;29.03;;;12.37;;
19016;SDS011;9641;51.494;6.670;2022-12-13T04:12:30;29.27;;;12.40;;
19016;SDS011;9641;51.494;6.670;2022-12-13T04:15:12;30.40;;;13.40;;
19016;SDS011;9641;51.494;6.670;2022-12-13T04:17:42;34.73;;;14.50;;
19016;SDS011;9641;51.494;6.670;2022-12-13T04:20:11;33.13;;;12.50;;
19016;SDS011;9641;51.494;6.670;2022-12-13T04:22:38;38.60;;;13.17;;
19016;SDS011;9641;51.494;6.670;2022-12-13T04:25:05;33.83;;;13.03;;
19016;SDS011;9641;51.494;6.670;2022-12-13T04:27:35;28.77;;;12.80;;
19016;SDS011;9641;51.494;6.670;2022-12-13T04:30:03;26.17;;;13.23;;
19016;SDS011;9641;51.494;6.670;2022-12-13T04:32:32;31.50;;;12.30;;
19016;SDS011;9641;51.494;6.670;2022-12-13T04:35:00;28.83;;;12.33;;
19016;SDS011;9641;51.494;6.670;2022-12-13T04:37:48;37.00;;;14.97;;
19016;SDS011;9641;51.494;6.670;2022-12-13T04:40:16;33.03;;;13.83;;
19016;SDS011;9641;51.494;6.670;2022-12-13T04:42:45;31.57;;;12.33;;
19016;SDS011;9641;51.494;6.670;2022-12-13T04:45:14;32.77;;;14.83;;
19016;SDS011;9641;51.494;6.670;2022-12-13T04:47:42;34.80;;;14.00;;
19016;SDS011;9641;51.494;6.670;2022-12-13T04:50:10;28.87;;;13.10;;
19016;SDS011;9641;51.494;6.670;2022-12-13T04:52:37;33.10;;;13.13;;
19016;SDS011;9641;51.494;6.670;2022-12-13T04:55:07;27.60;;;12.87;;
19016;SDS011;9641;51.494;6.670;2022-12-13T04:57:36;32.47;;;13.33;;
19016;SDS011;9641;51.494;6.670;2022-12-13T05:00:04;24.40;;;11.50;;
19016;SDS011;9641;51.494;6.670;2022-12-13T05:02:37;33.37;;;14.53;;
19016;SDS011;9641;51.494;6.670;2022-12-13T05:05:09;30.77;;;13.03;;
19016;SDS011;9641;51.494;6.670;2022-12-13T05:07:37;29.87;;;12.97;;
19016;SDS011;9641;51.494;6.670;2022-12-13T05:10:14;33.37;;;14.47;;
19016;SDS011;9641;51.494;6.670;2022-12-13T05:12:44;27.80;;;12.70;;
19016;SDS011;9641;51.494;6.670;2022-12-13T05:15:11;33.83;;;13.57;;
19016;SDS011;9641;51.494;6.670;2022-12-13T05:17:38;32.27;;;13.33;;
19016;SDS011;9641;51.494;6.670;2022-12-13T05:20:06;30.60;;;13.53;;
19016;SDS011;9641;51.494;6.670;2022-12-13T05:22:35;34.37;;;14.30;;
19016;SDS011;9641;51.494;6.670;2022-12-13T05:25:02;32.03;;;13.80;;
19016;SDS011;9641;51.494;6.670;2022-12-13T05:27:34;35.27;;;13.17;;
19016;SDS011;9641;51.494;6.670;2022-12-13T05:30:02;30.20;;;13.53;;
19016;SDS011;9641;51.494;6.670;2022-12-13T05:32:30;36.67;;;15.90;;
19016;SDS011;9641;51.494;6.670;2022-12-13T05:35:00;35.60;;;14.03;;
19016;SDS011;9641;51.494;6.670;2022-12-13T05:37:31;29.43;;;13.10;;
19016;SDS011;9641;51.494;6.670;2022-12-13T05:39:59;36.90;;;13.77;;
19016;SDS011;9641;51.494;6.670;2022-12-13T05:42:26;38.53;;;14.53;;
19016;SDS011;9641;51.494;6.670;2022-12-13T05:44:55;30.40;;;12.97;;
19016;SDS011;9641;51.494;6.670;2022-12-13T05:47:27;35.53;;;13.47;;
19016;SDS011;9641;51.494;6.670;2022-12-13T05:49:55;30.77;;;13.77;;
19016;SDS011;9641;51.494;6.670;2022-12-13T05:52:25;34.67;;;12.97;;
19016;SDS011;9641;51.494;6.670;2022-12-13T05:54:53;34.97;;;13.07;;
19016;SDS011;9641;51.494;6.670;2022-12-13T05:57:20;25.13;;;12.53;;
19016;SDS011;9641;51.494;6.670;2022-12-13T05:59:51;33.03;;;14.43;;
19016;SDS011;9641;51.494;6.670;2022-12-13T06:02:24;38.77;;;15.57;;
19016;SDS011;9641;51.494;6.670;2022-12-13T06:04:55;31.53;;;13.57;;
19016;SDS011;9641;51.494;6.670;2022-12-13T06:07:23;30.13;;;13.33;;
19016;SDS011;9641;51.494;6.670;2022-12-13T06:09:58;31.37;;;13.20;;
19016;SDS011;9641;51.494;6.670;2022-12-13T06:12:26;30.10;;;13.37;;
19016;SDS011;9641;51.494;6.670;2022-12-13T06:14:58;25.53;;;12.33;;
19016;SDS011;9641;51.494;6.670;2022-12-13T06:17:48;31.73;;;12.63;;
19016;SDS011;9641;51.494;6.670;2022-12-13T06:20:15;33.33;;;13.83;;
19016;SDS011;9641;51.494;6.670;2022-12-13T06:22:42;35.63;;;14.80;;
19016;SDS011;9641;51.494;6.670;2022-12-13T06:25:09;45.07;;;14.57;;
19016;SDS011;9641;51.494;6.670;2022-12-13T06:27:37;33.03;;;14.40;;
19016;SDS011;9641;51.494;6.670;2022-12-13T06:30:06;35.70;;;14.30;;
19016;SDS011;9641;51.494;6.670;2022-12-13T06:32:34;30.50;;;13.77;;
19016;SDS011;9641;51.494;6.670;2022-12-13T06:35:04;39.70;;;14.20;;
19016;SDS011;9641;51.494;6.670;2022-12-13T06:37:34;30.97;;;14.73;;
19016;SDS011;9641;51.494;6.670;2022-12-13T06:40:11;38.33;;;14.40;;
19016;SDS011;9641;51.494;6.670;2022-12-13T06:43:05;35.57;;;14.90;;
19016;SDS011;9641;51.494;6.670;2022-12-13T06:45:41;30.77;;;13.57;;
19016;SDS011;9641;51.494;6.670;2022-12-13T06:48:11;33.30;;;14.73;;
19016;SDS011;9641;51.494;6.670;2022-12-13T06:50:52;32.47;;;15.07;;
19016;SDS011;9641;51.494;6.670;2022-12-13T06:53:21;34.90;;;14.27;;
19016;SDS011;9641;51.494;6.670;2022-12-13T06:55:49;36.53;;;14.47;;
19016;SDS011;9641;51.494;6.670;2022-12-13T06:58:16;31.37;;;13.40;;
19016;SDS011;9641;51.494;6.670;2022-12-13T07:00:44;37.57;;;14.00;;
19016;SDS011;9641;51.494;6.670;2022-12-13T07:03:13;34.00;;;13.40;;
19016;SDS011;9641;51.494;6.670;2022-12-13T07:05:43;33.93;;;13.33;;
19016;SDS011;9641;51.494;6.670;2022-12-13T07:08:35;34.50;;;13.40;;
19016;SDS011;9641;51.494;6.670;2022-12-13T07:11:07;34.67;;;12.80;;
19016;SDS011;9641;51.494;6.670;2022-12-13T07:13:39;30.63;;;13.23;;
19016;SDS011;9641;51.494;6.670;2022-12-13T07:16:11;32.40;;;13.00;;
19016;SDS011;9641;51.494;6.670;2022-12-13T07:18:39;31.57;;;13.80;;
19016;SDS011;9641;51.494;6.670;2022-12-13T07:21:08;27.93;;;14.00;;
19016;SDS011;9641;51.494;6.670;2022-12-13T07:23:42;32.70;;;12.87;;
19016;SDS011;9641;51.494;6.670;2022-12-13T07:26:09;37.73;;;14.93;;
19016;SDS011;9641;51.494;6.670;2022-12-13T07:28:36;31.73;;;14.97;;
19016;SDS011;9641;51.494;6.670;2022-12-13T07:31:05;39.37;;;14.37;;
19016;SDS011;9641;51.494;6.670;2022-12-13T07:33:33;29.83;;;13.13;;
19016;SDS011;9641;51.494;6.670;2022-12-13T07:36:02;32.73;;;12.80;;
19016;SDS011;9641;51.494;6.670;2022-12-13T07:38:33;31.00;;;13.13;;
19016;SDS011;9641;51.494;6.670;2022-12-13T07:41:02;33.87;;;14.63;;
19016;SDS011;9641;51.494;6.670;2022-12-13T07:43:37;30.60;;;12.73;;
19016;SDS011;9641;51.494;6.670;2022-12-13T07:46:05;32.70;;;12.77;;
19016;SDS011;9641;51.494;6.670;2022-12-13T07:48:36;32.57;;;13.77;;
19016;SDS011;9641;51.494;6.670;2022-12-13T07:51:06;34.77;;;13.30;;
19016;SDS011;9641;51.494;6.670;2022-12-13T07:53:36;28.70;;;13.83;;
19016;SDS011;9641;51.494;6.670;2022-12-13T07:56:06;37.23;;;15.17;;
19016;SDS011;9641;51.494;6.670;2022-12-13T07:58:37;31.67;;;13.77;;
19016;SDS011;9641;51.494;6.670;2022-12-13T08:01:06;42.43;;;15.33;;
19016;SDS011;9641;51.494;6.670;2022-12-13T08:03:36;37.30;;;14.97;;
19016;SDS011;9641;51.494;6.670;2022-12-13T08:06:07;35.13;;;14.10;;
19016;SDS011;9641;51.494;6.670;2022-12-13T08:08:36;38.83;;;13.97;;
19016;SDS011;9641;51.494;6.670;2022-12-13T08:11:09;44.77;;;15.43;;
19016;SDS011;9641;51.494;6.670;2022-12-13T08:13:37;36.77;;;13.03;;
19016;SDS011;9641;51.494;6.670;2022-12-13T08:16:07;38.17;;;13.80;;
19016;SDS011;9641;51.494;6.670;2022-12-13T08:18:36;31.30;;;13.63;;
19016;SDS011;9641;51.494;6.670;2022-12-13T08:21:06;39.33;;;13.93;;
19016;SDS011;9641;51.494;6.670;2022-12-13T08:23:35;34.90;;;14.33;;
19016;SDS011;9641;51.494;6.670;2022-12-13T08:26:02;38.50;;;15.17;;
19016;SDS011;9641;51.494;6.670;2022-12-13T08:28:32;37.87;;;15.63;;
19016;SDS011;9641;51.494;6.670;2022-12-13T08:31:01;34.07;;;15.30;;
19016;SDS011;9641;51.494;6.670;2022-12-13T08:33:31;39.47;;;15.50;;
19016;SDS011;9641;51.494;6.670;2022-12-13T08:36:06;37.97;;;14.47;;
19016;SDS011;9641;51.494;6.670;2022-12-13T08:38:34;33.53;;;15.27;;
19016;SDS011;9641;51.494;6.670;2022-12-13T08:41:02;36.73;;;16.33;;
19016;SDS011;9641;51.494;6.670;2022-12-13T08:43:33;37.60;;;15.43;;
19016;SDS011;9641;51.494;6.670;2022-12-13T08:46:00;40.77;;;15.53;;
19016;SDS011;9641;51.494;6.670;2022-12-13T08:48:28;38.60;;;17.27;;
19016;SDS011;9641;51.494;6.670;2022-12-13T08:50:58;44.70;;;16.90;;
19016;SDS011;9641;51.494;6.670;2022-12-13T08:53:28;41.53;;;16.17;;
19016;SDS011;9641;51.494;6.670;2022-12-13T08:56:00;34.67;;;16.00;;
19016;SDS011;9641;51.494;6.670;2022-12-13T08:58:29;41.37;;;16.23;;
19016;SDS011;9641;51.494;6.670;2022-12-13T09:01:03;46.07;;;16.60;;
19016;SDS011;9641;51.494;6.670;2022-12-13T09:03:31;39.23;;;16.53;;
19016;SDS011;9641;51.494;6.670;2022-12-13T09:06:04;38.40;;;15.77;;
19016;SDS011;9641;51.494;6.670;2022-12-13T09:08:31;43.83;;;17.63;;
19016;SDS011;9641;51.494;6.670;2022-12-13T09:11:01;40.70;;;17.03;;
19016;SDS011;9641;51.494;6.670;2022-12-13T09:13:31;42.33;;;16.93;;
19016;SDS011;9641;51.494;6.670;2022-12-13T09:16:03;45.37;;;18.27;;
19016;SDS011;9641;51.494;6.670;2022-12-13T09:18:35;43.20;;;17.63;;
19016;SDS011;9641;51.494;6.670;2022-12-13T09:21:07;37.30;;;15.80;;
19016;SDS011;9641;51.494;6.670;2022-12-13T09:23:36;41.07;;;17.53;;
19016;SDS011;9641;51.494;6.670;2022-12-13T09:26:06;38.10;;;17.33;;
19016;SDS011;9641;51.494;6.670;2022-12-13T09:28:36;36.40;;;16.53;;
19016;SDS011;9641;51.494;6.670;2022-12-13T09:31:05;39.73;;;17.20;;
19016;SDS011;9641;51.494;6.670;2022-12-13T09:33:34;42.60;;;17.13;;
19016;SDS011;9641;51.494;6.670;2022-12-13T09:36:03;41.50;;;18.27;;
19016;SDS011;9641;51.494;6.670;2022-12-13T09:38:33;39.70;;;16.40;;
19016;SDS011;9641;51.494;6.670;2022-12-13T09:41:02;39.40;;;16.47;;
19016;SDS011;9641;51.494;6.670;2022-12-13T09:43:39;41.43;;;17.13;;
19016;SDS011;9641;51.494;6.670;2022-12-13T09:46:11;41.90;;;15.93;;
19016;SDS011;9641;51.494;6.670;2022-12-13T09:48:46;42.17;;;16.40;;
19016;SDS011;9641;51.494;6.670;2022-12-13T09:51:17;36.27;;;16.10;;
19016;SDS011;9641;51.494;6.670;2022-12-13T09:53:44;40.27;;;15.17;;
19016;SDS011;9641;51.494;6.670;2022-12-13T09:56:17;34.63;;;15.20;;
19016;SDS011;9641;51.494;6.670;2022-12-13T09:58:48;40.33;;;15.40;;
19016;SDS011;9641;51.494;6.670;2022-12-13T10:01:18;36.60;;;14.20;;
19016;SDS011;9641;51.494;6.670;2022-12-13T10:03:46;32.67;;;13.30;;
19016;SDS011;9641;51.494;6.670;2022-12-13T10:06:16;35.10;;;13.60;;
19016;SDS011;9641;51.494;6.670;2022-12-13T10:08:46;32.83;;;14.00;;
19016;SDS011;9641;51.494;6.670;2022-12-13T10:11:17;29.83;;;12.93;;
19016;SDS011;9641;51.494;6.670;2022-12-13T10:13:50;38.13;;;13.87;;
19016;SDS011;9641;51.494;6.670;2022-12-13T10:16:25;28.23;;;12.70;;
19016;SDS011;9641;51.494;6.670;2022-12-13T10:18:53;26.43;;;12.73;;
19016;SDS011;9641;51.494;6.670;2022-12-13T10:21:23;29.33;;;12.73;;
19016;SDS011;9641;51.494;6.670;2022-12-13T10:23:59;25.77;;;11.73;;
19016;SDS011;9641;51.494;6.670;2022-12-13T10:26:34;35.90;;;13.30;;
19016;SDS011;9641;51.494;6.670;2022-12-13T10:29:05;29.73;;;13.73;;
19016;SDS011;9641;51.494;6.670;2022-12-13T10:31:45;29.77;;;12.20;;
19016;SDS011;9641;51.494;6.670;2022-12-13T10:34:19;25.50;;;12.90;;
19016;SDS011;9641;51.494;6.670;2022-12-13T10:36:50;24.63;;;12.03;;
19016;SDS011;9641;51.494;6.670;2022-12-13T10:39:18;24.37;;;12.37;;
19016;SDS011;9641;51.494;6.670;2022-12-13T10:42:04;28.77;;;12.37;;
19016;SDS011;9641;51.494;6.670;2022-12-13T10:44:40;21.77;;;11.20;;
19016;SDS011;9641;51.494;6.670;2022-12-13T10:47:12;31.30;;;12.07;;
19016;SDS011;9641;51.494;6.670;2022-12-13T10:49:48;28.03;;;12.60;;
19016;SDS011;9641;51.494;6.670;2022-12-13T10:52:23;26.67;;;11.70;;
19016;SDS011;9641;51.494;6.670;2022-12-13T10:55:17;24.13;;;11.20;;
19016;SDS011;9641;51.494;6.670;2022-12-13T10:57:54;22.93;;;10.63;;
19016;SDS011;9641;51.494;6.670;2022-12-13T11:00:34;22.37;;;10.77;;
19016;SDS011;9641;51.494;6.670;2022-12-13T11:03:32;22.37;;;10.80;;
19016;SDS011;9641;51.494;6.670;2022-12-13T11:06:26;20.90;;;10.53;;
19016;SDS011;9641;51.494;6.670;2022-12-13T11:09:11;21.83;;;10.53;;
19016;SDS011;9641;51.494;6.670;2022-12-13T11:11:41;20.90;;;11.13;;
19016;SDS011;9641;51.494;6.670;2022-12-13T11:14:14;20.57;;;10.60;;
19016;SDS011;9641;51.494;6.670;2022-12-13T11:16:48;18.77;;;9.20;;
19016;SDS011;9641;51.494;6.670;2022-12-13T11:19:19;22.83;;;11.77;;
19016;SDS011;9641;51.494;6.670;2022-12-13T11:21:49;22.33;;;10.97;;
19016;SDS011;9641;51.494;6.670;2022-12-13T11:24:20;18.40;;;10.13;;
19016;SDS011;9641;51.494;6.670;2022-12-13T11:26:50;23.63;;;10.30;;
19016;SDS011;9641;51.494;6.670;2022-12-13T11:29:29;20.17;;;10.47;;
19016;SDS011;9641;51.494;6.670;2022-12-13T11:32:12;19.63;;;10.33;;
19016;SDS011;9641;51.494;6.670;2022-12-13T11:34:46;19.40;;;10.87;;
19016;SDS011;9641;51.494;6.670;2022-12-13T11:37:24;19.67;;;10.30;;
19016;SDS011;9641;51.494;6.670;2022-12-13T11:39:56;19.33;;;10.37;;
19016;SDS011;9641;51.494;6.670;2022-12-13T11:42:29;18.60;;;10.73;;
19016;SDS011;9641;51.494;6.670;2022-12-13T11:45:04;20.50;;;11.03;;
19016;SDS011;9641;51.494;6.670;2022-12-13T11:47:41;17.80;;;9.87;;
19016;SDS011;9641;51.494;6.670;2022-12-13T11:50:15;16.83;;;9.60;;
19016;SDS011;9641;51.494;6.670;2022-12-13T11:52:45;18.07;;;9.97;;
19016;SDS011;9641;51.494;6.670;2022-12-13T11:55:17;15.77;;;9.77;;
19016;SDS011;9641;51.494;6.670;2022-12-13T11:57:51;20.97;;;10.30;;
19016;SDS011;9641;51.494;6.670;2022-12-13T12:00:29;18.63;;;10.30;;
19016;SDS011;9641;51.494;6.670;2022-12-13T12:03:03;16.07;;;8.93;;
19016;SDS011;9641;51.494;6.670;2022-12-13T12:05:40;17.47;;;9.70;;
19016;SDS011;9641;51.494;6.670;2022-12-13T12:08:17;16.83;;;9.77;;
19016;SDS011;9641;51.494;6.670;2022-12-13T12:10:55;17.77;;;9.67;;
19016;SDS011;9641;51.494;6.670;2022-12-13T12:13:29;16.90;;;9.47;;
19016;SDS011;9641;51.494;6.670;2022-12-13T12:16:04;17.60;;;9.30;;
19016;SDS011;9641;51.494;6.670;2022-12-13T12:18:38;18.47;;;10.17;;
19016;SDS011;9641;51.494;6.670;2022-12-13T12:21:11;17.67;;;10.00;;
19016;SDS011;9641;51.494;6.670;2022-12-13T12:23:53;18.77;;;10.33;;
19016;SDS011;9641;51.494;6.670;2022-12-13T12:26:38;18.33;;;9.87;;
19016;SDS011;9641;51.494;6.670;2022-12-13T12:29:17;17.83;;;10.13;;
19016;SDS011;9641;51.494;6.670;2022-12-13T12:32:01;19.87;;;9.57;;
19016;SDS011;9641;51.494;6.670;2022-12-13T12:34:38;17.70;;;9.67;;
19016;SDS011;9641;51.494;6.670;2022-12-13T12:37:12;20.47;;;9.63;;
19016;SDS011;9641;51.494;6.670;2022-12-13T12:39:49;17.63;;;10.03;;
19016;SDS011;9641;51.494;6.670;2022-12-13T12:42:38;17.03;;;9.73;;
19016;SDS011;9641;51.494;6.670;2022-12-13T12:45:19;16.87;;;9.23;;
19016;SDS011;9641;51.494;6.670;2022-12-13T12:48:00;16.70;;;9.60;;
19016;SDS011;9641;51.494;6.670;2022-12-13T12:50:46;16.67;;;9.00;;
19016;SDS011;9641;51.494;6.670;2022-12-13T12:53:27;13.73;;;8.60;;
19016;SDS011;9641;51.494;6.670;2022-12-13T12:56:06;16.17;;;8.87;;
19016;SDS011;9641;51.494;6.670;2022-12-13T12:58:49;15.57;;;8.97;;
19016;SDS011;9641;51.494;6.670;2022-12-13T13:01:28;18.60;;;9.03;;
19016;SDS011;9641;51.494;6.670;2022-12-13T13:04:09;16.03;;;9.07;;
19016;SDS011;9641;51.494;6.670;2022-12-13T13:06:44;14.73;;;8.97;;
19016;SDS011;9641;51.494;6.670;2022-12-13T13:09:28;19.03;;;8.90;;
19016;SDS011;9641;51.494;6.670;2022-12-13T13:11:58;14.90;;;9.63;;
19016;SDS011;9641;51.494;6.670;2022-12-13T13:14:33;19.70;;;9.20;;
19016;SDS011;9641;51.494;6.670;2022-12-13T13:20:16;18.50;;;9.03;;
19016;SDS011;9641;51.494;6.670;2022-12-13T13:22:46;17.93;;;9.50;;
19016;SDS011;9641;51.494;6.670;2022-12-13T13:25:22;20.90;;;9.87;;
19016;SDS011;9641;51.494;6.670;2022-12-13T13:27:59;18.77;;;9.57;;
19016;SDS011;9641;51.494;6.670;2022-12-13T13:30:32;15.97;;;8.47;;
19016;SDS011;9641;51.494;6.670;2022-12-13T13:33:01;19.43;;;8.83;;
19016;SDS011;9641;51.494;6.670;2022-12-13T13:44:34;16.47;;;7.70;;
19016;SDS011;9641;51.494;6.670;2022-12-13T13:47:42;15.30;;;9.07;;
19016;SDS011;9641;51.494;6.670;2022-12-13T13:50:21;25.50;;;11.37;;
19016;SDS011;9641;51.494;6.670;2022-12-13T13:53:34;25.17;;;12.63;;
19016;SDS011;9641;51.494;6.670;2022-12-13T13:56:24;27.70;;;11.93;;
19016;SDS011;9641;51.494;6.670;2022-12-13T13:59:17;22.37;;;11.80;;
19016;SDS011;9641;51.494;6.670;2022-12-13T14:05:08;27.83;;;14.33;;
19016;SDS011;9641;51.494;6.670;2022-12-13T14:08:07;27.83;;;14.23;;
19016;SDS011;9641;51.494;6.670;2022-12-13T14:11:03;32.43;;;15.43;;
19016;SDS011;9641;51.494;6.670;2022-12-13T14:14:19;35.30;;;16.07;;
19016;SDS011;9641;51.494;6.670;2022-12-13T14:23:07;40.03;;;17.07;;
19016;SDS011;9641;51.494;6.670;2022-12-13T14:25:50;33.60;;;16.70;;
19016;SDS011;9641;51.494;6.670;2022-12-13T14:31:19;31.10;;;16.37;;
19016;SDS011;9641;51.494;6.670;2022-12-13T14:33:48;35.30;;;17.10;;
19016;SDS011;9641;51.494;6.670;2022-12-13T14:36:24;40.50;;;18.47;;
19016;SDS011;9641;51.494;6.670;2022-12-13T14:38:57;39.07;;;18.83;;
19016;SDS011;9641;51.494;6.670;2022-12-13T14:41:28;37.03;;;17.87;;
19016;SDS011;9641;51.494;6.670;2022-12-13T14:46:47;41.17;;;19.33;;
19016;SDS011;9641;51.494;6.670;2022-12-13T14:49:16;41.77;;;19.97;;
19016;SDS011;9641;51.494;6.670;2022-12-13T14:51:43;43.80;;;20.00;;
19016;SDS011;9641;51.494;6.670;2022-12-13T14:54:16;42.67;;;20.40;;
19016;SDS011;9641;51.494;6.670;2022-12-13T14:56:53;39.73;;;20.73;;
19016;SDS011;9641;51.494;6.670;2022-12-13T14:59:23;40.47;;;17.50;;
19016;SDS011;9641;51.494;6.670;2022-12-13T15:01:54;45.93;;;20.27;;
19016;SDS011;9641;51.494;6.670;2022-12-13T15:04:25;45.50;;;19.47;;
19016;SDS011;9641;51.494;6.670;2022-12-13T15:06:55;38.57;;;18.87;;
19016;SDS011;9641;51.494;6.670;2022-12-13T15:09:27;39.00;;;19.40;;
19016;SDS011;9641;51.494;6.670;2022-12-13T15:11:54;38.17;;;17.97;;
19016;SDS011;9641;51.494;6.670;2022-12-13T15:14:25;39.90;;;18.17;;
19016;SDS011;9641;51.494;6.670;2022-12-13T15:16:52;36.57;;;18.50;;
19016;SDS011;9641;51.494;6.670;2022-12-13T15:19:26;44.20;;;18.43;;
19016;SDS011;9641;51.494;6.670;2022-12-13T15:22:00;43.70;;;17.67;;
19016;SDS011;9641;51.494;6.670;2022-12-13T15:24:37;33.93;;;17.33;;
19016;SDS011;9641;51.494;6.670;2022-12-13T15:27:14;34.80;;;16.93;;
19016;SDS011;9641;51.494;6.670;2022-12-13T15:29:44;45.17;;;18.90;;
19016;SDS011;9641;51.494;6.670;2022-12-13T15:32:13;46.87;;;19.77;;
19016;SDS011;9641;51.494;6.670;2022-12-13T15:34:44;46.53;;;20.03;;
19016;SDS011;9641;51.494;6.670;2022-12-13T15:39:59;36.93;;;16.17;;
19016;SDS011;9641;51.494;6.670;2022-12-13T15:42:32;35.47;;;16.67;;